createdAt,value
2019-02-07T00:00:36.292Z,1008.10
2019-02-07T00:01:36.303Z,1008.10
2019-02-07T00:02:36.315Z,1008.08
2019-02-07T00:03:36.322Z,1008.12
2019-02-07T00:04:36.344Z,1008.12
2019-02-07T00:05:36.486Z,1008.09
2019-02-07T00:06:36.383Z,1008.12
2019-02-07T00:07:36.377Z,1008.09
2019-02-07T00:08:36.413Z,1008.08
2019-02-07T00:09:36.406Z,1008.03
2019-02-07T00:10:36.423Z,1008.02
2019-02-07T00:11:36.440Z,1008.03
2019-02-07T00:12:36.440Z,1008.00
2019-02-07T00:13:36.451Z,1008.00
2019-02-07T00:14:39.821Z,1007.98
2019-02-07T00:15:36.770Z,1007.99
2019-02-07T00:16:36.490Z,1008.00
2019-02-07T00:17:36.504Z,1008.00
2019-02-07T00:18:36.519Z,1007.99
2019-02-07T00:19:36.531Z,1008.00
2019-02-07T00:20:36.632Z,1007.98
2019-02-07T00:21:36.553Z,1007.96
2019-02-07T00:22:39.218Z,1007.91
2019-02-07T00:23:36.581Z,1007.92
2019-02-07T00:24:42.925Z,1007.94
2019-02-07T00:25:36.602Z,1007.93
2019-02-07T00:26:36.625Z,1007.90
2019-02-07T00:27:36.634Z,1007.91
2019-02-07T00:28:36.647Z,1007.87
2019-02-07T00:29:36.687Z,1007.97
2019-02-07T00:30:36.848Z,1007.90
2019-02-07T00:31:36.685Z,1007.93
2019-02-07T00:32:36.709Z,1007.90
2019-02-07T00:33:36.714Z,1007.87
2019-02-07T00:34:36.726Z,1007.87
2019-02-07T00:35:36.738Z,1007.87
2019-02-07T00:36:36.752Z,1007.87
2019-02-07T00:37:36.765Z,1007.89
2019-02-07T00:38:36.776Z,1007.87
2019-02-07T00:39:36.786Z,1007.82
2019-02-07T00:40:36.876Z,1007.83
2019-02-07T00:41:36.816Z,1007.83
2019-02-07T00:42:36.828Z,1007.78
2019-02-07T00:43:36.839Z,1007.82
2019-02-07T00:44:36.849Z,1007.77
2019-02-07T00:45:36.871Z,1007.73
2019-02-07T00:46:36.879Z,1007.71
2019-02-07T00:47:36.904Z,1007.67
2019-02-07T00:48:36.907Z,1007.61
2019-02-07T00:49:36.918Z,1007.56
2019-02-07T00:50:37.133Z,1007.55
2019-02-07T00:51:36.942Z,1007.50
2019-02-07T00:52:36.958Z,1007.55
2019-02-07T00:53:36.983Z,1007.54
2019-02-07T00:54:36.976Z,1007.53
2019-02-07T00:55:37.005Z,1007.47
2019-02-07T00:56:39.737Z,1007.50
2019-02-07T00:57:37.016Z,1007.48
2019-02-07T00:58:37.041Z,1007.45
2019-02-07T00:59:37.053Z,1007.46
2019-02-07T01:00:37.080Z,1007.45
2019-02-07T01:01:37.067Z,1007.40
2019-02-07T01:02:37.164Z,1007.41
2019-02-07T01:03:37.116Z,1007.44
2019-02-07T01:04:37.104Z,1007.40
2019-02-07T01:05:37.120Z,1007.42
2019-02-07T01:06:37.132Z,1007.37
2019-02-07T01:07:37.146Z,1007.39
2019-02-07T01:08:37.161Z,1007.37
2019-02-07T01:09:37.170Z,1007.37
2019-02-07T01:10:37.181Z,1007.31
2019-02-07T01:11:37.194Z,1007.26
2019-02-07T01:12:37.208Z,1007.23
2019-02-07T01:13:37.232Z,1007.23
2019-02-07T01:14:37.237Z,1007.22
2019-02-07T01:15:37.321Z,1007.25
2019-02-07T01:16:37.276Z,1007.23
2019-02-07T01:17:37.282Z,1007.23
2019-02-07T01:18:37.302Z,1007.27
2019-02-07T01:19:37.302Z,1007.28
2019-02-07T01:20:37.334Z,1007.27
2019-02-07T01:21:37.325Z,1007.25
2019-02-07T01:22:37.346Z,1007.24
2019-02-07T01:23:37.356Z,1007.26
2019-02-07T01:24:37.363Z,1007.26
2019-02-07T01:25:37.511Z,1007.25
2019-02-07T01:26:37.387Z,1007.24
2019-02-07T01:27:37.417Z,1007.21
2019-02-07T01:28:37.427Z,1007.17
2019-02-07T01:29:37.429Z,1007.20
2019-02-07T01:30:37.440Z,1007.15
2019-02-07T01:31:37.458Z,1007.17
2019-02-07T01:32:37.470Z,1007.15
2019-02-07T01:33:37.481Z,1007.19
2019-02-07T01:34:37.518Z,1007.15
2019-02-07T01:35:37.503Z,1007.10
2019-02-07T01:36:37.529Z,1007.14
2019-02-07T01:37:37.538Z,1007.10
2019-02-07T01:38:37.604Z,1007.09
2019-02-07T01:39:37.558Z,1007.03
2019-02-07T01:40:37.574Z,1007.02
2019-02-07T01:41:37.583Z,1007.04
2019-02-07T01:42:37.601Z,1007.01
2019-02-07T01:43:37.613Z,1007.02
2019-02-07T01:44:37.630Z,1007.01
2019-02-07T01:45:37.634Z,1006.99
2019-02-07T01:46:37.650Z,1006.94
2019-02-07T01:47:37.662Z,1006.94
2019-02-07T01:48:37.719Z,1006.97
2019-02-07T01:49:37.685Z,1006.96
2019-02-07T01:50:37.698Z,1006.94
2019-02-07T01:51:37.721Z,1006.95
2019-02-07T01:52:37.722Z,1006.96
2019-02-07T01:53:37.733Z,1006.97
2019-02-07T01:54:37.758Z,1006.95
2019-02-07T01:55:37.759Z,1006.96
2019-02-07T01:56:37.793Z,1006.87
2019-02-07T01:57:37.819Z,1006.87
2019-02-07T01:58:37.816Z,1006.85
2019-02-07T01:59:37.818Z,1006.81
2019-02-07T02:00:37.829Z,1006.78
2019-02-07T02:01:37.842Z,1006.71
2019-02-07T02:02:37.848Z,1006.69
2019-02-07T02:03:37.902Z,1006.70
2019-02-07T02:04:37.877Z,1006.67
2019-02-07T02:05:37.886Z,1006.71
2019-02-07T02:06:37.902Z,1006.66
2019-02-07T02:07:37.912Z,1006.71
2019-02-07T02:08:37.919Z,1006.69
2019-02-07T02:09:37.939Z,1006.71
2019-02-07T02:10:37.946Z,1006.65
2019-02-07T02:11:37.963Z,1006.63
2019-02-07T02:12:37.976Z,1006.65
2019-02-07T02:13:38.040Z,1006.64
2019-02-07T02:14:37.998Z,1006.72
2019-02-07T02:15:38.015Z,1006.72
2019-02-07T02:16:38.030Z,1006.75
2019-02-07T02:17:38.045Z,1006.73
2019-02-07T02:18:38.066Z,1006.78
2019-02-07T02:19:38.063Z,1006.76
2019-02-07T02:20:38.074Z,1006.78
2019-02-07T02:21:38.087Z,1006.77
2019-02-07T02:22:38.100Z,1006.75
2019-02-07T02:23:38.176Z,1006.71
2019-02-07T02:24:38.124Z,1006.65
2019-02-07T02:25:38.138Z,1006.65
2019-02-07T02:26:38.174Z,1006.64
2019-02-07T02:27:38.167Z,1006.64
2019-02-07T02:28:38.179Z,1006.60
2019-02-07T02:29:38.191Z,1006.55
2019-02-07T02:30:38.213Z,1006.55
2019-02-07T02:31:38.214Z,1006.57
2019-02-07T02:32:38.228Z,1006.62
2019-02-07T02:33:38.335Z,1006.59
2019-02-07T02:34:38.254Z,1006.56
2019-02-07T02:35:38.263Z,1006.49
2019-02-07T02:36:38.280Z,1006.53
2019-02-07T02:37:38.295Z,1006.51
2019-02-07T02:38:38.300Z,1006.45
2019-02-07T02:39:38.319Z,1006.42
2019-02-07T02:40:38.327Z,1006.41
2019-02-07T02:41:38.348Z,1006.35
2019-02-07T02:42:38.353Z,1006.36
2019-02-07T02:43:38.507Z,1006.34
2019-02-07T02:44:38.382Z,1006.40
2019-02-07T02:45:38.389Z,1006.40
2019-02-07T02:46:38.416Z,1006.40
2019-02-07T02:47:38.425Z,1006.37
2019-02-07T02:48:38.427Z,1006.35
2019-02-07T02:49:38.440Z,1006.38
2019-02-07T02:50:38.464Z,1006.35
2019-02-07T02:51:38.467Z,1006.32
2019-02-07T02:52:40.317Z,1006.32
2019-02-07T02:53:38.489Z,1006.28
2019-02-07T02:54:38.501Z,1006.27
2019-02-07T02:55:38.511Z,1006.25
2019-02-07T02:56:38.525Z,1006.25
2019-02-07T02:57:38.537Z,1006.24
2019-02-07T02:58:38.623Z,1006.24
2019-02-07T02:59:38.566Z,1006.28
2019-02-07T03:00:38.584Z,1006.24
2019-02-07T03:01:38.599Z,1006.25
2019-02-07T03:02:38.605Z,1006.29
2019-02-07T03:03:38.625Z,1006.29
2019-02-07T03:04:38.642Z,1006.25
2019-02-07T03:05:38.640Z,1006.20
2019-02-07T03:06:38.649Z,1006.16
2019-02-07T03:07:38.666Z,1006.16
2019-02-07T03:08:38.786Z,1006.20
2019-02-07T03:09:38.691Z,1006.15
2019-02-07T03:10:38.702Z,1006.14
2019-02-07T03:11:38.722Z,1006.10
2019-02-07T03:12:38.731Z,1006.12
2019-02-07T03:13:38.738Z,1006.10
2019-02-07T03:14:38.753Z,1006.12
2019-02-07T03:15:49.055Z,1006.18
2019-02-07T03:16:38.783Z,1006.15
2019-02-07T03:17:38.783Z,1006.13
2019-02-07T03:18:38.923Z,1006.13
2019-02-07T03:19:38.813Z,1006.08
2019-02-07T03:20:38.829Z,1006.04
2019-02-07T03:21:38.838Z,1006.01
2019-02-07T03:22:38.851Z,1006.01
2019-02-07T03:23:38.862Z,1005.92
2019-02-07T03:24:38.877Z,1005.91
2019-02-07T03:25:38.881Z,1005.85
2019-02-07T03:26:38.899Z,1005.83
2019-02-07T03:27:38.912Z,1005.91
2019-02-07T03:28:38.975Z,1005.98
2019-02-07T03:29:38.944Z,1005.98
2019-02-07T03:30:38.951Z,1005.93
2019-02-07T03:31:38.960Z,1005.90
2019-02-07T03:32:38.978Z,1005.83
2019-02-07T03:33:38.985Z,1005.82
2019-02-07T03:34:39.002Z,1005.84
2019-02-07T03:35:39.007Z,1005.78
2019-02-07T03:36:39.025Z,1005.63
2019-02-07T03:37:39.036Z,1005.60
2019-02-07T03:38:39.051Z,1005.69
2019-02-07T03:39:39.063Z,1005.68
2019-02-07T03:40:39.073Z,1005.73
2019-02-07T03:41:39.126Z,1005.80
2019-02-07T03:42:39.095Z,1005.79
2019-02-07T03:43:39.108Z,1005.76
2019-02-07T03:44:39.124Z,1005.68
2019-02-07T03:45:39.140Z,1005.62
2019-02-07T03:46:39.148Z,1005.57
2019-02-07T03:47:39.160Z,1005.56
2019-02-07T03:48:39.184Z,1005.51
2019-02-07T03:49:39.182Z,1005.53
2019-02-07T03:50:39.192Z,1005.52
2019-02-07T03:51:39.207Z,1005.52
2019-02-07T03:52:39.216Z,1005.53
2019-02-07T03:53:39.317Z,1005.53
2019-02-07T03:54:39.240Z,1005.57
2019-02-07T03:55:39.267Z,1005.62
2019-02-07T03:56:39.273Z,1005.60
2019-02-07T03:57:39.284Z,1005.60
2019-02-07T03:58:39.288Z,1005.62
2019-02-07T03:59:39.308Z,1005.58
2019-02-07T04:00:39.314Z,1005.58
2019-02-07T04:01:39.331Z,1005.56
2019-02-07T04:02:40.688Z,1005.55
2019-02-07T04:03:39.361Z,1005.56
2019-02-07T04:04:39.367Z,1005.53
2019-02-07T04:05:39.375Z,1005.53
2019-02-07T04:06:39.410Z,1005.50
2019-02-07T04:07:39.412Z,1005.46
2019-02-07T04:08:39.429Z,1005.43
2019-02-07T04:09:39.435Z,1005.38
2019-02-07T04:10:39.442Z,1005.31
2019-02-07T04:11:39.448Z,1005.32
2019-02-07T04:12:39.471Z,1005.32
2019-02-07T04:13:39.478Z,1005.36
2019-02-07T04:14:39.489Z,1005.29
2019-02-07T04:15:39.501Z,1005.32
2019-02-07T04:16:39.582Z,1005.34
2019-02-07T04:17:39.531Z,1005.41
2019-02-07T04:18:39.536Z,1005.35
2019-02-07T04:19:39.548Z,1005.34
2019-02-07T04:20:39.563Z,1005.28
2019-02-07T04:21:39.570Z,1005.33
2019-02-07T04:22:39.583Z,1005.32
2019-02-07T04:23:39.597Z,1005.25
2019-02-07T04:24:39.607Z,1005.21
2019-02-07T04:25:39.632Z,1005.22
2019-02-07T04:26:39.667Z,1005.24
2019-02-07T04:27:39.647Z,1005.22
2019-02-07T04:28:39.658Z,1005.24
2019-02-07T04:29:39.676Z,1005.22
2019-02-07T04:30:39.687Z,1005.20
2019-02-07T04:31:39.706Z,1005.15
2019-02-07T04:32:39.711Z,1005.13
2019-02-07T04:33:39.721Z,1005.15
2019-02-07T04:34:39.734Z,1005.12
2019-02-07T04:35:39.745Z,1005.21
2019-02-07T04:36:39.759Z,1005.20
2019-02-07T04:37:39.768Z,1005.26
2019-02-07T04:38:39.784Z,1005.25
2019-02-07T04:39:39.796Z,1005.22
2019-02-07T04:40:39.809Z,1005.28
2019-02-07T04:41:39.852Z,1005.25
2019-02-07T04:42:39.833Z,1005.21
2019-02-07T04:43:39.847Z,1005.22
2019-02-07T04:44:39.860Z,1005.23
2019-02-07T04:45:39.878Z,1005.22
2019-02-07T04:46:39.894Z,1005.28
2019-02-07T04:47:39.974Z,1005.28
2019-02-07T04:48:39.919Z,1005.27
2019-02-07T04:49:39.924Z,1005.28
2019-02-07T04:50:39.967Z,1005.22
2019-02-07T04:51:39.968Z,1005.20
2019-02-07T04:52:39.975Z,1005.24
2019-02-07T04:53:39.972Z,1005.26
2019-02-07T04:54:39.984Z,1005.27
2019-02-07T04:55:39.993Z,1005.25
2019-02-07T04:56:40.004Z,1005.27
2019-02-07T04:57:40.054Z,1005.24
2019-02-07T04:58:40.031Z,1005.24
2019-02-07T04:59:40.039Z,1005.19
2019-02-07T05:00:40.050Z,1005.14
2019-02-07T05:01:40.107Z,1005.16
2019-02-07T05:02:40.075Z,1005.13
2019-02-07T05:03:40.094Z,1005.09
2019-02-07T05:04:40.106Z,1005.11
2019-02-07T05:05:40.110Z,1005.04
2019-02-07T05:06:40.127Z,1005.06
2019-02-07T05:07:40.155Z,1005.02
2019-02-07T05:08:40.146Z,1004.97
2019-02-07T05:09:40.162Z,1004.90
2019-02-07T05:10:40.247Z,1004.93
2019-02-07T05:11:40.307Z,1004.96
2019-02-07T05:12:40.207Z,1005.02
2019-02-07T05:13:40.209Z,1005.08
2019-02-07T05:14:40.227Z,1005.06
2019-02-07T05:15:40.235Z,1005.00
2019-02-07T05:16:43.576Z,1005.05
2019-02-07T05:17:40.267Z,1005.06
2019-02-07T05:18:40.264Z,1005.02
2019-02-07T05:19:40.288Z,1005.02
2019-02-07T05:20:40.297Z,1005.05
2019-02-07T05:21:40.433Z,1005.12
2019-02-07T05:22:40.329Z,1005.15
2019-02-07T05:23:40.338Z,1005.16
2019-02-07T05:24:41.147Z,1005.16
2019-02-07T05:25:40.365Z,1005.20
2019-02-07T05:26:40.365Z,1005.15
2019-02-07T05:27:40.377Z,1005.19
2019-02-07T05:28:40.398Z,1005.13
2019-02-07T05:29:40.409Z,1005.15
2019-02-07T05:30:40.417Z,1005.13
2019-02-07T05:31:40.434Z,1005.15
2019-02-07T05:32:40.453Z,1005.20
2019-02-07T05:33:40.453Z,1005.25
2019-02-07T05:34:40.466Z,1005.26
2019-02-07T05:35:40.480Z,1005.22
2019-02-07T05:36:42.361Z,1005.25
2019-02-07T05:37:40.510Z,1005.19
2019-02-07T05:38:40.519Z,1005.19
2019-02-07T05:39:40.533Z,1005.18
2019-02-07T05:40:40.549Z,1005.14
2019-02-07T05:41:40.555Z,1005.08
2019-02-07T05:42:40.576Z,1005.06
2019-02-07T05:43:40.587Z,1005.03
2019-02-07T05:44:40.616Z,1005.02
2019-02-07T05:45:40.616Z,1004.90
2019-02-07T05:46:50.640Z,1004.87
2019-02-07T05:47:40.634Z,1004.85
2019-02-07T05:48:40.646Z,1004.78
2019-02-07T05:49:40.655Z,1004.80
2019-02-07T05:50:40.669Z,1004.75
2019-02-07T05:51:40.682Z,1004.85
2019-02-07T05:52:40.697Z,1004.94
2019-02-07T05:53:40.703Z,1004.89
2019-02-07T05:54:40.718Z,1004.88
2019-02-07T05:55:40.726Z,1004.80
2019-02-07T05:56:40.896Z,1004.79
2019-02-07T05:57:40.756Z,1004.70
2019-02-07T05:58:40.777Z,1004.65
2019-02-07T05:59:40.773Z,1004.73
2019-02-07T06:00:40.793Z,1004.57
2019-02-07T06:01:40.803Z,1004.50
2019-02-07T06:02:40.820Z,1004.48
2019-02-07T06:03:40.825Z,1004.45
2019-02-07T06:04:40.841Z,1004.43
2019-02-07T06:05:40.854Z,1004.47
2019-02-07T06:06:40.994Z,1004.46
2019-02-07T06:07:40.879Z,1004.61
2019-02-07T06:08:40.890Z,1004.59
2019-02-07T06:09:40.923Z,1004.58
2019-02-07T06:10:40.918Z,1004.59
2019-02-07T06:11:40.926Z,1004.57
2019-02-07T06:12:40.939Z,1004.59
2019-02-07T06:13:40.964Z,1004.59
2019-02-07T06:14:40.967Z,1004.59
2019-02-07T06:15:40.979Z,1004.57
2019-02-07T06:16:40.999Z,1004.55
2019-02-07T06:17:41.005Z,1004.52
2019-02-07T06:18:41.020Z,1004.50
2019-02-07T06:19:41.029Z,1004.56
2019-02-07T06:20:41.047Z,1004.53
2019-02-07T06:21:41.105Z,1004.54
2019-02-07T06:22:41.068Z,1004.54
2019-02-07T06:23:41.076Z,1004.58
2019-02-07T06:24:41.090Z,1004.58
2019-02-07T06:25:41.105Z,1004.55
2019-02-07T06:26:41.113Z,1004.48
2019-02-07T06:27:41.129Z,1004.39
2019-02-07T06:28:41.135Z,1004.36
2019-02-07T06:29:41.155Z,1004.35
2019-02-07T06:30:41.167Z,1004.44
2019-02-07T06:31:41.224Z,1004.44
2019-02-07T06:32:41.185Z,1004.47
2019-02-07T06:33:41.207Z,1004.43
2019-02-07T06:34:41.214Z,1004.40
2019-02-07T06:35:41.227Z,1004.39
2019-02-07T06:36:41.237Z,1004.43
2019-02-07T06:37:41.253Z,1004.42
2019-02-07T06:38:41.257Z,1004.42
2019-02-07T06:39:41.282Z,1004.41
2019-02-07T06:40:41.292Z,1004.44
2019-02-07T06:41:41.315Z,1004.43
2019-02-07T06:42:41.315Z,1004.36
2019-02-07T06:43:41.325Z,1004.36
2019-02-07T06:44:41.367Z,1004.38
2019-02-07T06:45:41.344Z,1004.35
2019-02-07T06:46:41.357Z,1004.38
2019-02-07T06:47:41.391Z,1004.39
2019-02-07T06:48:41.385Z,1004.37
2019-02-07T06:49:41.399Z,1004.39
2019-02-07T06:50:41.412Z,1004.37
2019-02-07T06:51:41.421Z,1004.37
2019-02-07T06:52:41.457Z,1004.39
2019-02-07T06:53:41.458Z,1004.41
2019-02-07T06:54:41.516Z,1004.40
2019-02-07T06:55:41.472Z,1004.43
2019-02-07T06:56:41.484Z,1004.51
2019-02-07T06:57:41.498Z,1004.45
2019-02-07T06:58:41.516Z,1004.39
2019-02-07T06:59:41.525Z,1004.40
2019-02-07T07:00:41.538Z,1004.36
2019-02-07T07:01:41.551Z,1004.36
2019-02-07T07:02:41.554Z,1004.41
2019-02-07T07:03:41.570Z,1004.40
2019-02-07T07:04:41.670Z,1004.42
2019-02-07T07:05:41.597Z,1004.43
2019-02-07T07:06:41.613Z,1004.44
2019-02-07T07:07:41.632Z,1004.48
2019-02-07T07:08:41.637Z,1004.44
2019-02-07T07:09:41.651Z,1004.42
2019-02-07T07:10:41.662Z,1004.46
2019-02-07T07:11:41.673Z,1004.45
2019-02-07T07:12:41.717Z,1004.40
2019-02-07T07:13:41.696Z,1004.39
2019-02-07T07:14:41.709Z,1004.38
2019-02-07T07:15:41.732Z,1004.36
2019-02-07T07:16:41.730Z,1004.30
2019-02-07T07:17:41.753Z,1004.31
2019-02-07T07:18:41.756Z,1004.27
2019-02-07T07:19:41.805Z,1004.28
2019-02-07T07:20:41.786Z,1004.22
2019-02-07T07:21:41.805Z,1004.17
2019-02-07T07:22:41.820Z,1004.10
2019-02-07T07:23:41.830Z,1004.08
2019-02-07T07:24:41.835Z,1004.04
2019-02-07T07:25:41.852Z,1004.00
2019-02-07T07:26:41.859Z,1004.00
2019-02-07T07:27:41.879Z,1003.97
2019-02-07T07:28:41.899Z,1004.03
2019-02-07T07:29:41.978Z,1004.02
2019-02-07T07:30:41.909Z,1004.01
2019-02-07T07:31:41.926Z,1003.96
2019-02-07T07:32:41.938Z,1003.89
2019-02-07T07:33:41.943Z,1003.88
2019-02-07T07:34:41.976Z,1003.83
2019-02-07T07:35:41.972Z,1003.87
2019-02-07T07:36:41.989Z,1003.90
2019-02-07T07:37:41.989Z,1003.87
2019-02-07T07:38:42.006Z,1003.86
2019-02-07T07:39:42.121Z,1003.89
2019-02-07T07:40:42.039Z,1003.85
2019-02-07T07:41:42.040Z,1003.80
2019-02-07T07:42:42.061Z,1003.81
2019-02-07T07:43:42.069Z,1003.80
2019-02-07T07:44:42.087Z,1003.74
2019-02-07T07:45:42.091Z,1003.76
2019-02-07T07:46:42.106Z,1003.77
2019-02-07T07:47:42.127Z,1003.71
2019-02-07T07:48:42.127Z,1003.71
2019-02-07T07:49:42.253Z,1003.72
2019-02-07T07:50:42.167Z,1003.70
2019-02-07T07:51:42.169Z,1003.67
2019-02-07T07:52:42.188Z,1003.69
2019-02-07T07:53:42.207Z,1003.72
2019-02-07T07:54:42.239Z,1003.71
2019-02-07T07:55:42.213Z,1003.69
2019-02-07T07:56:42.234Z,1003.68
2019-02-07T07:57:42.235Z,1003.58
2019-02-07T07:58:42.252Z,1003.64
2019-02-07T07:59:42.490Z,1003.66
2019-02-07T08:00:42.283Z,1003.70
2019-02-07T08:01:42.312Z,1003.69
2019-02-07T08:02:42.302Z,1003.58
2019-02-07T08:03:42.352Z,1003.69
2019-02-07T08:04:42.464Z,1003.74
2019-02-07T08:05:42.337Z,1003.69
2019-02-07T08:06:42.357Z,1003.62
2019-02-07T08:07:42.374Z,1003.67
2019-02-07T08:08:42.375Z,1003.68
2019-02-07T08:09:42.387Z,1003.68
2019-02-07T08:10:42.402Z,1003.65
2019-02-07T08:11:42.412Z,1003.70
2019-02-07T08:12:42.434Z,1003.74
2019-02-07T08:13:42.437Z,1003.68
2019-02-07T08:14:42.678Z,1003.62
2019-02-07T08:15:42.473Z,1003.66
2019-02-07T08:16:42.475Z,1003.63
2019-02-07T08:17:47.582Z,1003.63
2019-02-07T08:18:42.513Z,1003.59
2019-02-07T08:19:42.505Z,1003.59
2019-02-07T08:20:42.522Z,1003.60
2019-02-07T08:21:42.534Z,1003.59
2019-02-07T08:22:42.550Z,1003.60
2019-02-07T08:23:42.562Z,1003.60
2019-02-07T08:24:42.608Z,1003.61
2019-02-07T08:25:42.593Z,1003.59
2019-02-07T08:26:42.605Z,1003.58
2019-02-07T08:27:42.611Z,1003.58
2019-02-07T08:28:42.633Z,1003.59
2019-02-07T08:29:42.641Z,1003.61
2019-02-07T08:30:42.658Z,1003.63
2019-02-07T08:31:42.667Z,1003.64
2019-02-07T08:32:42.678Z,1003.68
2019-02-07T08:33:42.682Z,1003.65
2019-02-07T08:34:42.781Z,1003.66
2019-02-07T08:35:42.713Z,1003.68
2019-02-07T08:36:42.728Z,1003.66
2019-02-07T08:37:42.740Z,1003.69
2019-02-07T08:38:42.751Z,1003.71
2019-02-07T08:39:42.775Z,1003.69
2019-02-07T08:40:42.779Z,1003.71
2019-02-07T08:41:42.785Z,1003.67
2019-02-07T08:42:42.797Z,1003.60
2019-02-07T08:43:42.811Z,1003.62
2019-02-07T08:44:42.885Z,1003.62
2019-02-07T08:45:42.916Z,1003.55
2019-02-07T08:46:42.900Z,1003.54
2019-02-07T08:47:42.897Z,1003.54
2019-02-07T08:48:43.665Z,1003.53
2019-02-07T08:49:42.885Z,1003.53
2019-02-07T08:50:42.912Z,1003.49
2019-02-07T08:51:42.919Z,1003.54
2019-02-07T08:52:42.930Z,1003.50
2019-02-07T08:53:42.939Z,1003.49
2019-02-07T08:54:42.952Z,1003.50
2019-02-07T08:55:42.971Z,1003.51
2019-02-07T08:56:42.981Z,1003.48
2019-02-07T08:57:42.987Z,1003.44
2019-02-07T08:58:43.010Z,1003.47
2019-02-07T08:59:43.024Z,1003.44
2019-02-07T09:00:43.032Z,1003.49
2019-02-07T09:01:43.043Z,1003.50
2019-02-07T09:02:51.572Z,1003.49
2019-02-07T09:03:43.069Z,1003.47
2019-02-07T09:04:43.098Z,1003.45
2019-02-07T09:05:43.093Z,1003.37
2019-02-07T09:06:43.112Z,1003.39
2019-02-07T09:07:43.124Z,1003.39
2019-02-07T09:08:43.132Z,1003.41
2019-02-07T09:09:43.261Z,1003.39
2019-02-07T09:10:43.154Z,1003.39
2019-02-07T09:11:43.181Z,1003.38
2019-02-07T09:12:43.187Z,1003.36
2019-02-07T09:13:43.193Z,1003.45
2019-02-07T09:14:43.205Z,1003.39
2019-02-07T09:15:43.219Z,1003.33
2019-02-07T09:16:43.239Z,1003.37
2019-02-07T09:17:43.251Z,1003.37
2019-02-07T09:18:43.269Z,1003.36
2019-02-07T09:19:43.282Z,1003.35
2019-02-07T09:20:43.285Z,1003.32
2019-02-07T09:21:43.300Z,1003.34
2019-02-07T09:22:43.341Z,1003.37
2019-02-07T09:23:43.325Z,1003.37
2019-02-07T09:24:43.341Z,1003.41
2019-02-07T09:25:43.354Z,1003.41
2019-02-07T09:26:43.371Z,1003.45
2019-02-07T09:27:43.383Z,1003.47
2019-02-07T09:28:43.393Z,1003.39
2019-02-07T09:29:43.403Z,1003.40
2019-02-07T09:30:43.452Z,1003.25
2019-02-07T09:31:43.434Z,1003.24
2019-02-07T09:32:43.484Z,1003.23
2019-02-07T09:33:43.458Z,1003.23
2019-02-07T09:34:43.466Z,1003.24
2019-02-07T09:35:43.481Z,1003.19
2019-02-07T09:36:43.497Z,1003.26
2019-02-07T09:37:43.516Z,1003.32
2019-02-07T09:38:43.520Z,1003.31
2019-02-07T09:39:43.529Z,1003.32
2019-02-07T09:40:43.543Z,1003.34
2019-02-07T09:41:43.570Z,1003.38
2019-02-07T09:42:43.567Z,1003.40
2019-02-07T09:43:43.585Z,1003.39
2019-02-07T09:44:43.595Z,1003.42
2019-02-07T09:45:43.606Z,1003.43
2019-02-07T09:46:43.622Z,1003.49
2019-02-07T09:47:43.643Z,1003.49
2019-02-07T09:48:43.660Z,1003.51
2019-02-07T09:49:43.665Z,1003.55
2019-02-07T09:50:43.671Z,1003.57
2019-02-07T09:51:43.693Z,1003.58
2019-02-07T09:52:43.701Z,1003.56
2019-02-07T09:53:43.723Z,1003.59
2019-02-07T09:54:43.737Z,1003.57
2019-02-07T09:55:43.745Z,1003.59
2019-02-07T09:56:43.763Z,1003.54
2019-02-07T09:57:43.761Z,1003.53
2019-02-07T09:58:43.805Z,1003.47
2019-02-07T09:59:43.796Z,1003.55
2019-02-07T10:00:43.807Z,1003.49
2019-02-07T10:01:43.812Z,1003.49
2019-02-07T10:02:43.828Z,1003.48
2019-02-07T10:03:43.849Z,1003.50
2019-02-07T10:04:43.869Z,1003.53
2019-02-07T10:05:43.869Z,1003.55
2019-02-07T10:06:43.887Z,1003.54
2019-02-07T10:07:43.954Z,1003.57
2019-02-07T10:08:43.914Z,1003.54
2019-02-07T10:09:43.922Z,1003.56
2019-02-07T10:10:43.941Z,1003.47
2019-02-07T10:11:43.949Z,1003.47
2019-02-07T10:12:43.964Z,1003.46
2019-02-07T10:13:43.973Z,1003.46
2019-02-07T10:14:43.986Z,1003.55
2019-02-07T10:15:44.008Z,1003.56
2019-02-07T10:16:44.015Z,1003.56
2019-02-07T10:17:44.083Z,1003.52
2019-02-07T10:18:44.044Z,1003.51
2019-02-07T10:19:44.057Z,1003.52
2019-02-07T10:20:44.078Z,1003.54
2019-02-07T10:21:44.078Z,1003.56
2019-02-07T10:22:44.097Z,1003.56
2019-02-07T10:23:44.108Z,1003.60
2019-02-07T10:24:44.125Z,1003.53
2019-02-07T10:25:44.134Z,1003.56
2019-02-07T10:26:44.148Z,1003.54
2019-02-07T10:27:44.172Z,1003.59
2019-02-07T10:28:44.184Z,1003.58
2019-02-07T10:29:44.184Z,1003.56
2019-02-07T10:30:44.201Z,1003.59
2019-02-07T10:31:44.210Z,1003.56
2019-02-07T10:32:44.225Z,1003.52
2019-02-07T10:33:44.235Z,1003.55
2019-02-07T10:34:44.277Z,1003.61
2019-02-07T10:35:44.286Z,1003.64
2019-02-07T10:36:44.282Z,1003.60
2019-02-07T10:37:44.297Z,1003.58
2019-02-07T10:38:44.304Z,1003.56
2019-02-07T10:39:44.325Z,1003.61
2019-02-07T10:40:44.337Z,1003.68
2019-02-07T10:41:44.349Z,1003.72
2019-02-07T10:42:44.382Z,1003.76
2019-02-07T10:43:44.368Z,1003.64
2019-02-07T10:44:44.388Z,1003.62
2019-02-07T10:45:44.402Z,1003.61
2019-02-07T10:46:44.411Z,1003.61
2019-02-07T10:47:44.418Z,1003.52
2019-02-07T10:48:44.835Z,1003.46
2019-02-07T10:49:44.445Z,1003.43
2019-02-07T10:50:44.456Z,1003.47
2019-02-07T10:51:44.476Z,1003.43
2019-02-07T10:52:44.537Z,1003.35
2019-02-07T10:53:44.523Z,1003.29
2019-02-07T10:54:44.511Z,1003.28
2019-02-07T10:55:44.524Z,1003.25
2019-02-07T10:56:44.553Z,1003.28
2019-02-07T10:57:44.560Z,1003.30
2019-02-07T10:58:44.577Z,1003.31
2019-02-07T10:59:44.591Z,1003.29
2019-02-07T11:00:44.606Z,1003.29
2019-02-07T11:01:44.600Z,1003.35
2019-02-07T11:02:44.732Z,1003.32
2019-02-07T11:03:44.633Z,1003.37
2019-02-07T11:04:44.649Z,1003.37
2019-02-07T11:05:44.658Z,1003.34
2019-02-07T11:06:44.671Z,1003.34
2019-02-07T11:07:44.684Z,1003.27
2019-02-07T11:08:44.709Z,1003.35
2019-02-07T11:09:44.713Z,1003.33
2019-02-07T11:10:44.756Z,1003.28
2019-02-07T11:11:44.736Z,1003.23
2019-02-07T11:12:44.762Z,1003.22
2019-02-07T11:13:44.771Z,1003.19
2019-02-07T11:14:44.778Z,1003.15
2019-02-07T11:15:44.799Z,1003.06
2019-02-07T11:16:44.803Z,1003.07
2019-02-07T11:17:44.820Z,1003.09
2019-02-07T11:18:55.101Z,1003.19
2019-02-07T11:19:44.843Z,1003.14
2019-02-07T11:20:44.854Z,1003.09
2019-02-07T11:21:44.872Z,1003.09
2019-02-07T11:22:44.980Z,1003.14
2019-02-07T11:23:44.915Z,1003.16
2019-02-07T11:24:44.911Z,1003.24
2019-02-07T11:25:44.922Z,1003.23
2019-02-07T11:26:44.936Z,1003.24
2019-02-07T11:27:44.953Z,1003.22
2019-02-07T11:28:44.970Z,1003.23
2019-02-07T11:29:44.979Z,1003.18
2019-02-07T11:30:45.001Z,1003.15
2019-02-07T11:31:45.028Z,1003.18
2019-02-07T11:32:45.031Z,1003.16
2019-02-07T11:33:45.032Z,1003.15
2019-02-07T11:34:46.073Z,1003.14
2019-02-07T11:35:45.057Z,1003.18
2019-02-07T11:36:53.758Z,1003.15
2019-02-07T11:37:45.137Z,1003.19
2019-02-07T11:38:45.102Z,1003.19
2019-02-07T11:39:45.111Z,1003.21
2019-02-07T11:40:45.125Z,1003.26
2019-02-07T11:41:45.160Z,1003.22
2019-02-07T11:42:45.159Z,1003.20
2019-02-07T11:43:45.169Z,1003.24
2019-02-07T11:44:45.183Z,1003.21
2019-02-07T11:45:45.202Z,1003.27
2019-02-07T11:46:48.709Z,1003.21
2019-02-07T11:47:45.305Z,1003.25
2019-02-07T11:48:45.241Z,1003.27
2019-02-07T11:49:45.251Z,1003.19
2019-02-07T11:50:45.256Z,1003.26
2019-02-07T11:51:45.273Z,1003.17
2019-02-07T11:52:45.288Z,1003.15
2019-02-07T11:53:45.299Z,1003.12
2019-02-07T11:54:45.311Z,1003.07
2019-02-07T11:55:45.329Z,1003.06
2019-02-07T11:56:45.344Z,1003.08
2019-02-07T11:57:45.429Z,1003.07
2019-02-07T11:58:45.374Z,1003.03
2019-02-07T11:59:45.387Z,1003.04
2019-02-07T12:00:45.412Z,1002.97
2019-02-07T12:01:45.417Z,1003.01
2019-02-07T12:02:45.421Z,1003.00
2019-02-07T12:03:45.441Z,1003.00
2019-02-07T12:04:45.456Z,1002.99
2019-02-07T12:05:45.468Z,1002.97